Lavista, Nebraska
Current Conditions -  °F | °C
As of 2:15 PM on Thursday 30 Oct 2014 (Local Time) from KMLE Reporting Station
Clear Clear  
Wind Chill: 62°   Ceiling: Unl
Heat Index: 62°   Visibility: 10mi
Dew Point: 43°   Wind: 18mph
Humidity: 49%   Direction: 330°NNW
Pressure: 30.08"   Gusts: 24mph
Location:  41.166°N, 96.0444°W
Report Text: KMLE 301915Z AUTO 33016G21KT 10SM CLR 17/06 A3008 RMK AO2 T01690060
Loading
Personal Weather Stations






























Interactive Weather Map New forecast layout! Learn more

10-Day Weather Forecast

Advertisements
Track Severe Weather on mobile